Sanpo Maru No.5 — JL6343 — position and weather

sailwx.info

Track history (hours):
 
Tides and Currents Weather Stations Pressure Air Temp Water Temp Dewpoint Dewpoint Depression Visibility Wind Speed Wind Dir Waves Ship Positions

Sanpo Maru No.5

Last reported at 2016-Feb-10 14:33 UTC. Time now 2016-Feb-10 15:15 UTC.
Position N 33°43' E 130°17'.

Length 71 m; draft 4.5 m.

Type: Ship. MMSI: 431500283.

Date/timePositionNaut miles runAvg speedWind from/ knotsBaromVisibWave heightAir tempDewpointWater temp
2016-Feb-10 14:33N 33°43' E 130°17'23 9.9
2016-Feb-10 12:16N 33°58' E 130°38'13 0.5
2016-Feb-09 10:17N 33°50' E 130°25'811.2
2016-Feb-09 09:33N 33°44' E 130°18'8 8.3
2016-Feb-09 08:33N 33°37' E 130°23'1 0.5
2016-Feb-09 07:31N 33°36' E 130°23'0 0.0
2016-Feb-09 06:31N 33°36' E 130°23'0 0.0
2016-Feb-09 05:28N 33°36' E 130°23'0 0.0
2016-Feb-09 04:28N 33°36' E 130°23'2 1.9
2016-Feb-09 03:33N 33°37' E 130°21'0 0.0
2016-Feb-09 02:34N 33°37' E 130°21'0 0.0
2016-Feb-09 01:24N 33°37' E 130°21'0 0.0
2016-Feb-09 00:30N 33°37' E 130°21'0 0.0
2016-Feb-08 23:33N 33°37' E 130°21'0 0.0
2016-Feb-08 22:27N 33°37' E 130°21'0 0.0
2016-Feb-08 21:32N 33°37' E 130°21'0 0.0
2016-Feb-08 20:29N 33°37' E 130°21'0 0.0
2016-Feb-08 19:23N 33°37' E 130°21'0 0.0
2016-Feb-08 18:32N 33°37' E 130°21'0 0.0
2016-Feb-08 17:29N 33°37' E 130°21'0 0.0
2016-Feb-08 16:32N 33°37' E 130°21'0 0.0
2016-Feb-08 14:31N 33°37' E 130°21'6 6.1
2016-Feb-08 13:33N 33°41' E 130°16'10 9.3
2016-Feb-08 12:32N 33°50' E 130°20'18 8.5
2016-Feb-08 10:23N 33°58' E 130°40'17 0.7
2016-Feb-07 10:33N 33°48' E 130°23'10 9.8
2016-Feb-07 09:32N 33°39' E 130°18'5 4.9
2016-Feb-07 08:28N 33°36' E 130°23'0 0.0
2016-Feb-07 07:33N 33°36' E 130°23'0 0.0
2016-Feb-07 06:33N 33°36' E 130°23'0 0.0
2016-Feb-07 05:33N 33°36' E 130°23'0 0.2
2016-Feb-07 04:32N 33°36' E 130°23'1 0.9
2016-Feb-07 03:07N 33°37' E 130°22'0 0.1
2016-Feb-07 02:31N 33°37' E 130°22'0 0.0
2016-Feb-07 01:31N 33°37' E 130°22'0 0.1
2016-Feb-07 00:31N 33°37' E 130°22'0 0.0
2016-Feb-06 23:28N 33°37' E 130°22'0 0.1
2016-Feb-06 22:28N 33°37' E 130°22'0 0.0
2016-Feb-06 21:28N 33°37' E 130°22'0 0.0
2016-Feb-06 20:31N 33°37' E 130°22'0 0.1
2016-Feb-06 19:31N 33°37' E 130°22'0 0.1
2016-Feb-06 18:31N 33°37' E 130°22'0 0.0
2016-Feb-06 17:29N 33°37' E 130°22'0 0.0
2016-Feb-06 16:31N 33°37' E 130°22'7 7.1
2016-Feb-06 15:33N 33°42' E 130°16'7 0.2
2016-Feb-05 08:33N 33°47' E 130°22'9 9.3
2016-Feb-05 07:33N 33°38' E 130°19'4 3.6
2016-Feb-05 06:32N 33°36' E 130°23'0 0.0
2016-Feb-05 05:32N 33°36' E 130°23'0 0.0
2016-Feb-05 03:29N 33°36' E 130°23'1 1.0
2016-Feb-05 02:33N 33°37' E 130°23'1 1.3
2016-Feb-05 01:29N 33°37' E 130°21'0 0.0
2016-Feb-05 00:33N 33°37' E 130°21'0 0.0
2016-Feb-04 22:26N 33°37' E 130°21'0 0.0
2016-Feb-04 21:26N 33°37' E 130°21'0 0.0
2016-Feb-04 20:32N 33°37' E 130°21'0 0.0
2016-Feb-04 19:32N 33°37' E 130°21'0 0.0
2016-Feb-04 18:29N 33°37' E 130°21'0 0.0
2016-Feb-04 17:32N 33°37' E 130°21'2 2.0
2016-Feb-04 16:33N 33°38' E 130°19'9 9.3
2016-Feb-04 15:32N 33°48' E 130°19'20 9.4
2016-Feb-04 13:23N 33°57' E 130°40'17 0.6
2016-Feb-03 09:20N 33°49' E 130°23'911.8
2016-Feb-03 08:34N 33°42' E 130°16'8 7.3
2016-Feb-03 07:28N 33°36' E 130°23'0 0.0
2016-Feb-03 06:28N 33°36' E 130°23'0 0.0
2016-Feb-03 05:28N 33°36' E 130°23'0 0.0
2016-Feb-03 04:31N 33°36' E 130°23'0 0.1
2016-Feb-03 03:33N 33°36' E 130°23'2 1.5
2016-Feb-03 02:29N 33°37' E 130°21'0 0.0
2016-Feb-03 01:26N 33°37' E 130°21'0 0.1
2016-Feb-03 00:26N 33°37' E 130°21'0 0.0
2016-Feb-02 23:32N 33°37' E 130°21'0 0.0
2016-Feb-02 22:29N 33°37' E 130°21'0 0.0
2016-Feb-02 21:15N 33°37' E 130°21'0 0.1
2016-Feb-02 20:29N 33°37' E 130°21'0 0.0
2016-Feb-02 19:29N 33°37' E 130°21'0 0.0
2016-Feb-02 18:25N 33°37' E 130°21'0 0.0
2016-Feb-02 17:31N 33°37' E 130°21'0 0.0
2016-Feb-02 16:28N 33°37' E 130°21'0 0.0
2016-Feb-02 14:28N 33°37' E 130°21'5 5.7
2016-Feb-02 13:33N 33°40' E 130°16'1110.9
2016-Feb-02 12:33N 33°51' E 130°21'  
Track history (hours):
 
Tides and Currents Weather Stations Pressure Air Temp Water Temp Dewpoint Dewpoint Depression Visibility Wind Speed Wind Dir Waves Ship Positions

Sanpo Maru No.5

Last reported at 2016-Feb-10 14:33 UTC. Time now 2016-Feb-10 15:15 UTC.
Position N 33°43' E 130°17'.

Length 71 m; draft 4.5 m.

Type: Ship. MMSI: 431500283.

Date/timePositionNaut miles runAvg speedWind from/ knotsBaromVisibWave heightAir tempDewpointWater temp
2016-Feb-10 14:33N 33°43' E 130°17'23 9.9
2016-Feb-10 12:16N 33°58' E 130°38'13 0.5
2016-Feb-09 10:17N 33°50' E 130°25'811.2
2016-Feb-09 09:33N 33°44' E 130°18'8 8.3
2016-Feb-09 08:33N 33°37' E 130°23'1 0.5
2016-Feb-09 07:31N 33°36' E 130°23'0 0.0
2016-Feb-09 06:31N 33°36' E 130°23'0 0.0
2016-Feb-09 05:28N 33°36' E 130°23'0 0.0
2016-Feb-09 04:28N 33°36' E 130°23'2 1.9
2016-Feb-09 03:33N 33°37' E 130°21'0 0.0
2016-Feb-09 02:34N 33°37' E 130°21'0 0.0
2016-Feb-09 01:24N 33°37' E 130°21'0 0.0
2016-Feb-09 00:30N 33°37' E 130°21'0 0.0
2016-Feb-08 23:33N 33°37' E 130°21'0 0.0
2016-Feb-08 22:27N 33°37' E 130°21'0 0.0
2016-Feb-08 21:32N 33°37' E 130°21'0 0.0
2016-Feb-08 20:29N 33°37' E 130°21'0 0.0
2016-Feb-08 19:23N 33°37' E 130°21'0 0.0
2016-Feb-08 18:32N 33°37' E 130°21'0 0.0
2016-Feb-08 17:29N 33°37' E 130°21'0 0.0
2016-Feb-08 16:32N 33°37' E 130°21'0 0.0
2016-Feb-08 14:31N 33°37' E 130°21'6 6.1
2016-Feb-08 13:33N 33°41' E 130°16'10 9.3
2016-Feb-08 12:32N 33°50' E 130°20'18 8.5
2016-Feb-08 10:23N 33°58' E 130°40'17 0.7
2016-Feb-07 10:33N 33°48' E 130°23'10 9.8
2016-Feb-07 09:32N 33°39' E 130°18'5 4.9
2016-Feb-07 08:28N 33°36' E 130°23'0 0.0
2016-Feb-07 07:33N 33°36' E 130°23'0 0.0
2016-Feb-07 06:33N 33°36' E 130°23'0 0.0
2016-Feb-07 05:33N 33°36' E 130°23'0 0.2
2016-Feb-07 04:32N 33°36' E 130°23'1 0.9
2016-Feb-07 03:07N 33°37' E 130°22'0 0.1
2016-Feb-07 02:31N 33°37' E 130°22'0 0.0
2016-Feb-07 01:31N 33°37' E 130°22'0 0.1
2016-Feb-07 00:31N 33°37' E 130°22'0 0.0
2016-Feb-06 23:28N 33°37' E 130°22'0 0.1
2016-Feb-06 22:28N 33°37' E 130°22'0 0.0
2016-Feb-06 21:28N 33°37' E 130°22'0 0.0
2016-Feb-06 20:31N 33°37' E 130°22'0 0.1
2016-Feb-06 19:31N 33°37' E 130°22'0 0.1
2016-Feb-06 18:31N 33°37' E 130°22'0 0.0
2016-Feb-06 17:29N 33°37' E 130°22'0 0.0
2016-Feb-06 16:31N 33°37' E 130°22'7 7.1
2016-Feb-06 15:33N 33°42' E 130°16'7 0.2
2016-Feb-05 08:33N 33°47' E 130°22'9 9.3
2016-Feb-05 07:33N 33°38' E 130°19'4 3.6
2016-Feb-05 06:32N 33°36' E 130°23'0 0.0
2016-Feb-05 05:32N 33°36' E 130°23'0 0.0
2016-Feb-05 03:29N 33°36' E 130°23'1 1.0
2016-Feb-05 02:33N 33°37' E 130°23'1 1.3
2016-Feb-05 01:29N 33°37' E 130°21'0 0.0
2016-Feb-05 00:33N 33°37' E 130°21'0 0.0
2016-Feb-04 22:26N 33°37' E 130°21'0 0.0
2016-Feb-04 21:26N 33°37' E 130°21'0 0.0
2016-Feb-04 20:32N 33°37' E 130°21'0 0.0
2016-Feb-04 19:32N 33°37' E 130°21'0 0.0
2016-Feb-04 18:29N 33°37' E 130°21'0 0.0
2016-Feb-04 17:32N 33°37' E 130°21'2 2.0
2016-Feb-04 16:33N 33°38' E 130°19'9 9.3
2016-Feb-04 15:32N 33°48' E 130°19'20 9.4
2016-Feb-04 13:23N 33°57' E 130°40'17 0.6
2016-Feb-03 09:20N 33°49' E 130°23'911.8
2016-Feb-03 08:34N 33°42' E 130°16'8 7.3
2016-Feb-03 07:28N 33°36' E 130°23'0 0.0
2016-Feb-03 06:28N 33°36' E 130°23'0 0.0
2016-Feb-03 05:28N 33°36' E 130°23'0 0.0
2016-Feb-03 04:31N 33°36' E 130°23'0 0.1
2016-Feb-03 03:33N 33°36' E 130°23'2 1.5
2016-Feb-03 02:29N 33°37' E 130°21'0 0.0
2016-Feb-03 01:26N 33°37' E 130°21'0 0.1
2016-Feb-03 00:26N 33°37' E 130°21'0 0.0
2016-Feb-02 23:32N 33°37' E 130°21'0 0.0
2016-Feb-02 22:29N 33°37' E 130°21'0 0.0
2016-Feb-02 21:15N 33°37' E 130°21'0 0.1
2016-Feb-02 20:29N 33°37' E 130°21'0 0.0
2016-Feb-02 19:29N 33°37' E 130°21'0 0.0
2016-Feb-02 18:25N 33°37' E 130°21'0 0.0
2016-Feb-02 17:31N 33°37' E 130°21'0 0.0
2016-Feb-02 16:28N 33°37' E 130°21'0 0.0
2016-Feb-02 14:28N 33°37' E 130°21'5 5.7
2016-Feb-02 13:33N 33°40' E 130°16'1110.9
2016-Feb-02 12:33N 33°51' E 130°21'  

Dump ship's entire track history